This is the latest recevied weather packets stored in our database for station/object KF7U. If no packets are shown the sender has not sent any weather packets the latest 10 day(s).
| Time | Temp. | Humidity | Pressure | Rain* | Wind** | Luminosity | Snow |
|---|---|---|---|---|---|---|---|
| 1777474055 | 21.67° C | 22% | 1013.5 hPa | 0 mm | - | 336 W/m² | - |
| 1777473754 | 20.56° C | 25% | 1013.5 hPa | 0 mm | - | 297 W/m² | - |
| 1777473455 | 20° C | 26% | 1013.5 hPa | 0 mm | - | 274 W/m² | - |
| 1777473154 | 19.44° C | 28% | 1013.5 hPa | 0 mm | - | 213 W/m² | - |
| 1777472858 | 18.89° C | 30% | 1013.5 hPa | 0 mm | - | 171 W/m² | - |
| 1777472554 | 18.33° C | 31% | 1013.2 hPa | 0 mm | - | 185 W/m² | - |
| 1777472254 | 17.78° C | 31% | 1013.5 hPa | 0 mm | - | 161 W/m² | - |
| 1777471955 | 17.22° C | 32% | 1013.5 hPa | 0 mm | - | 161 W/m² | - |
| 1777471654 | 16.67° C | 31% | 1013.5 hPa | 0 mm | - | 149 W/m² | - |
| 1777471355 | 16.11° C | 30% | 1013.5 hPa | 0 mm | - | 118 W/m² | - |
| 1777471055 | 16.11° C | 30% | 1013.5 hPa | 0 mm | - | 109 W/m² | - |
| 1777470755 | 15.56° C | 31% | 1013.2 hPa | 0 mm | - | 111 W/m² | - |
| 1777470455 | 15° C | 30% | 1013.2 hPa | 0 mm | - | 104 W/m² | - |
| 1777470155 | 14.44° C | 32% | 1013.2 hPa | 0 mm | - | 98 W/m² | - |
| 1777469855 | 14.44° C | 32% | 1013.2 hPa | 0 mm | - | 94 W/m² | - |
| 1777469555 | 13.89° C | 32% | 1013.2 hPa | 0 mm | - | 83 W/m² | - |
| 1777469255 | 13.89° C | 31% | 1012.9 hPa | 0 mm | - | 77 W/m² | - |
| 1777468655 | 13.33° C | 32% | 1013.2 hPa | 0 mm | - | 43 W/m² | - |
| 1777468354 | 13.33° C | 32% | 1013.2 hPa | 0 mm | - | 43 W/m² | - |
| 1777468055 | 13.33° C | 32% | 1012.9 hPa | 0 mm | - | 42 W/m² | - |
| 1777467754 | 13.33° C | 33% | 1012.9 hPa | 0 mm | - | 28 W/m² | - |
| 1777467455 | 13.33° C | 31% | 1013.2 hPa | 0 mm | - | 19 W/m² | - |
| 1777467154 | 13.33° C | 31% | 1012.9 hPa | 0 mm | - | 15 W/m² | - |
| 1777466855 | 13.33° C | 32% | 1012.9 hPa | 0 mm | - | 12 W/m² | - |
| 1777466555 | 13.33° C | 31% | 1012.9 hPa | 0 mm | - | 7 W/m² | - |
* Rain latest hour (hover to see other rain measurements)
** Current wind speed in m/s (hover to see current wind gust speed)